sensor_id;sensor_type;location;lat;lon;timestamp;temperature;humidity
3919;DHT22;1974;48.670;8.994;2022-10-18T00:01:01;15.00;99.90
3919;DHT22;1974;48.670;8.994;2022-10-18T00:03:34;14.90;99.90
3919;DHT22;1974;48.670;8.994;2022-10-18T00:06:02;14.90;99.90
3919;DHT22;1974;48.670;8.994;2022-10-18T00:08:31;14.90;99.90
3919;DHT22;1974;48.670;8.994;2022-10-18T00:11:01;14.90;99.90
3919;DHT22;1974;48.670;8.994;2022-10-18T00:13:33;14.80;99.90
3919;DHT22;1974;48.670;8.994;2022-10-18T00:16:03;14.90;99.90
3919;DHT22;1974;48.670;8.994;2022-10-18T00:18:31;14.80;99.90
3919;DHT22;1974;48.670;8.994;2022-10-18T00:21:13;14.80;99.90
3919;DHT22;1974;48.670;8.994;2022-10-18T00:23:44;14.80;99.90
3919;DHT22;1974;48.670;8.994;2022-10-18T00:26:17;14.80;99.90
3919;DHT22;1974;48.670;8.994;2022-10-18T00:28:49;14.80;99.90
3919;DHT22;1974;48.670;8.994;2022-10-18T00:31:20;14.80;99.90
3919;DHT22;1974;48.670;8.994;2022-10-18T00:33:54;14.80;99.90
3919;DHT22;1974;48.670;8.994;2022-10-18T00:36:22;14.70;99.90
3919;DHT22;1974;48.670;8.994;2022-10-18T00:38:52;14.70;99.90
3919;DHT22;1974;48.670;8.994;2022-10-18T00:41:23;14.70;99.90
3919;DHT22;1974;48.670;8.994;2022-10-18T00:43:56;14.70;99.90
3919;DHT22;1974;48.670;8.994;2022-10-18T00:46:28;14.80;99.90
3919;DHT22;1974;48.670;8.994;2022-10-18T00:48:58;14.80;99.90
3919;DHT22;1974;48.670;8.994;2022-10-18T00:51:28;14.70;99.90
3919;DHT22;1974;48.670;8.994;2022-10-18T00:54:26;14.80;99.90
3919;DHT22;1974;48.670;8.994;2022-10-18T00:56:57;14.80;99.90
3919;DHT22;1974;48.670;8.994;2022-10-18T00:59:26;14.80;99.90
3919;DHT22;1974;48.670;8.994;2022-10-18T01:01:54;14.80;99.90
3919;DHT22;1974;48.670;8.994;2022-10-18T01:04:22;14.70;99.90
3919;DHT22;1974;48.670;8.994;2022-10-18T01:06:58;14.70;99.90
3919;DHT22;1974;48.670;8.994;2022-10-18T01:09:33;14.80;99.90
3919;DHT22;1974;48.670;8.994;2022-10-18T01:12:15;14.80;99.90
3919;DHT22;1974;48.670;8.994;2022-10-18T01:14:53;14.80;99.90
3919;DHT22;1974;48.670;8.994;2022-10-18T01:17:27;14.90;99.90
3919;DHT22;1974;48.670;8.994;2022-10-18T01:20:27;14.80;99.90
3919;DHT22;1974;48.670;8.994;2022-10-18T01:23:04;14.80;99.90
3919;DHT22;1974;48.670;8.994;2022-10-18T01:25:41;14.90;99.90
3919;DHT22;1974;48.670;8.994;2022-10-18T01:28:31;14.90;99.90
3919;DHT22;1974;48.670;8.994;2022-10-18T01:31:03;15.00;99.90
3919;DHT22;1974;48.670;8.994;2022-10-18T01:33:38;14.90;99.90
3919;DHT22;1974;48.670;8.994;2022-10-18T01:36:14;15.00;99.90
3919;DHT22;1974;48.670;8.994;2022-10-18T01:38:44;15.00;99.90
3919;DHT22;1974;48.670;8.994;2022-10-18T01:41:21;15.00;99.90
3919;DHT22;1974;48.670;8.994;2022-10-18T01:43:53;15.10;99.90
3919;DHT22;1974;48.670;8.994;2022-10-18T01:46:25;15.10;99.90
3919;DHT22;1974;48.670;8.994;2022-10-18T01:48:58;15.10;99.90
3919;DHT22;1974;48.670;8.994;2022-10-18T01:51:34;15.20;99.90
3919;DHT22;1974;48.670;8.994;2022-10-18T01:54:04;15.10;99.90
3919;DHT22;1974;48.670;8.994;2022-10-18T01:56:36;15.20;99.90
3919;DHT22;1974;48.670;8.994;2022-10-18T01:59:24;15.20;99.90
3919;DHT22;1974;48.670;8.994;2022-10-18T02:02:16;15.20;99.90
3919;DHT22;1974;48.670;8.994;2022-10-18T02:04:49;15.30;99.90
3919;DHT22;1974;48.670;8.994;2022-10-18T02:07:29;15.20;99.90
3919;DHT22;1974;48.670;8.994;2022-10-18T02:10:07;15.20;99.90
3919;DHT22;1974;48.670;8.994;2022-10-18T02:12:40;15.20;99.90
3919;DHT22;1974;48.670;8.994;2022-10-18T02:15:09;15.10;99.90
3919;DHT22;1974;48.670;8.994;2022-10-18T02:17:43;15.10;99.90
3919;DHT22;1974;48.670;8.994;2022-10-18T02:20:16;15.20;99.90
3919;DHT22;1974;48.670;8.994;2022-10-18T02:22:48;15.20;99.90
3919;DHT22;1974;48.670;8.994;2022-10-18T02:25:22;15.20;99.90
3919;DHT22;1974;48.670;8.994;2022-10-18T02:27:51;15.20;99.90
3919;DHT22;1974;48.670;8.994;2022-10-18T02:30:23;15.20;99.90
3919;DHT22;1974;48.670;8.994;2022-10-18T02:32:57;15.10;99.90
3919;DHT22;1974;48.670;8.994;2022-10-18T02:35:30;15.20;99.90
3919;DHT22;1974;48.670;8.994;2022-10-18T02:37:59;15.10;99.90
3919;DHT22;1974;48.670;8.994;2022-10-18T02:40:29;15.20;99.90
3919;DHT22;1974;48.670;8.994;2022-10-18T02:42:57;15.20;99.90
3919;DHT22;1974;48.670;8.994;2022-10-18T02:45:25;15.20;99.90
3919;DHT22;1974;48.670;8.994;2022-10-18T02:47:58;15.20;99.90
3919;DHT22;1974;48.670;8.994;2022-10-18T02:50:26;15.20;99.90
3919;DHT22;1974;48.670;8.994;2022-10-18T02:52:53;15.20;99.90
3919;DHT22;1974;48.670;8.994;2022-10-18T02:55:24;15.10;99.90
3919;DHT22;1974;48.670;8.994;2022-10-18T02:57:54;15.20;99.90
3919;DHT22;1974;48.670;8.994;2022-10-18T03:00:23;15.30;99.90
3919;DHT22;1974;48.670;8.994;2022-10-18T03:02:51;15.30;99.90
3919;DHT22;1974;48.670;8.994;2022-10-18T03:05:21;15.20;99.90
3919;DHT22;1974;48.670;8.994;2022-10-18T03:07:49;15.20;99.90
3919;DHT22;1974;48.670;8.994;2022-10-18T03:10:16;15.20;99.90
3919;DHT22;1974;48.670;8.994;2022-10-18T03:12:44;15.20;99.90
3919;DHT22;1974;48.670;8.994;2022-10-18T03:15:21;15.20;99.90
3919;DHT22;1974;48.670;8.994;2022-10-18T03:17:49;15.20;99.90
3919;DHT22;1974;48.670;8.994;2022-10-18T03:20:17;15.10;99.90
3919;DHT22;1974;48.670;8.994;2022-10-18T03:22:46;15.20;99.90
3919;DHT22;1974;48.670;8.994;2022-10-18T03:25:14;15.20;99.90
3919;DHT22;1974;48.670;8.994;2022-10-18T03:27:45;15.20;99.90
3919;DHT22;1974;48.670;8.994;2022-10-18T03:30:12;15.20;99.90
3919;DHT22;1974;48.670;8.994;2022-10-18T03:32:40;15.20;99.90
3919;DHT22;1974;48.670;8.994;2022-10-18T03:35:08;15.20;99.90
3919;DHT22;1974;48.670;8.994;2022-10-18T03:37:36;15.20;99.90
3919;DHT22;1974;48.670;8.994;2022-10-18T03:40:09;15.20;99.90
3919;DHT22;1974;48.670;8.994;2022-10-18T03:42:36;15.20;99.90
3919;DHT22;1974;48.670;8.994;2022-10-18T03:45:05;15.20;99.90
3919;DHT22;1974;48.670;8.994;2022-10-18T03:47:35;15.20;99.90
3919;DHT22;1974;48.670;8.994;2022-10-18T03:50:08;15.20;99.90
3919;DHT22;1974;48.670;8.994;2022-10-18T03:52:35;15.20;99.90
3919;DHT22;1974;48.670;8.994;2022-10-18T03:55:08;15.10;99.90
3919;DHT22;1974;48.670;8.994;2022-10-18T03:57:36;15.10;99.90
3919;DHT22;1974;48.670;8.994;2022-10-18T04:00:04;15.10;99.90
3919;DHT22;1974;48.670;8.994;2022-10-18T04:02:32;15.10;99.90
3919;DHT22;1974;48.670;8.994;2022-10-18T04:05:00;15.00;99.90
3919;DHT22;1974;48.670;8.994;2022-10-18T04:07:36;15.00;99.90
3919;DHT22;1974;48.670;8.994;2022-10-18T04:10:09;15.00;99.90
3919;DHT22;1974;48.670;8.994;2022-10-18T04:12:40;14.90;99.90
3919;DHT22;1974;48.670;8.994;2022-10-18T04:15:08;14.80;99.90
3919;DHT22;1974;48.670;8.994;2022-10-18T04:17:38;14.80;99.90
3919;DHT22;1974;48.670;8.994;2022-10-18T04:20:09;14.70;99.90
3919;DHT22;1974;48.670;8.994;2022-10-18T04:22:37;14.70;99.90
3919;DHT22;1974;48.670;8.994;2022-10-18T04:25:11;14.70;99.90
3919;DHT22;1974;48.670;8.994;2022-10-18T04:27:39;14.70;99.90
3919;DHT22;1974;48.670;8.994;2022-10-18T04:30:10;14.70;99.90
3919;DHT22;1974;48.670;8.994;2022-10-18T04:32:41;14.70;99.90
3919;DHT22;1974;48.670;8.994;2022-10-18T04:35:09;14.70;99.90
3919;DHT22;1974;48.670;8.994;2022-10-18T04:37:37;14.70;99.90
3919;DHT22;1974;48.670;8.994;2022-10-18T04:40:06;14.70;99.90
3919;DHT22;1974;48.670;8.994;2022-10-18T04:42:35;14.60;99.90
3919;DHT22;1974;48.670;8.994;2022-10-18T04:45:03;14.70;99.90
3919;DHT22;1974;48.670;8.994;2022-10-18T04:47:33;14.70;99.90
3919;DHT22;1974;48.670;8.994;2022-10-18T04:50:06;14.60;99.90
3919;DHT22;1974;48.670;8.994;2022-10-18T04:52:34;14.60;99.90
3919;DHT22;1974;48.670;8.994;2022-10-18T04:55:01;14.60;99.90
3919;DHT22;1974;48.670;8.994;2022-10-18T04:57:32;14.60;99.90
3919;DHT22;1974;48.670;8.994;2022-10-18T05:00:01;14.50;99.90
3919;DHT22;1974;48.670;8.994;2022-10-18T05:02:35;14.50;99.90
3919;DHT22;1974;48.670;8.994;2022-10-18T05:05:03;14.50;99.90
3919;DHT22;1974;48.670;8.994;2022-10-18T05:07:33;14.50;99.90
3919;DHT22;1974;48.670;8.994;2022-10-18T05:10:03;14.50;99.90
3919;DHT22;1974;48.670;8.994;2022-10-18T05:12:34;14.40;99.90
3919;DHT22;1974;48.670;8.994;2022-10-18T05:15:07;14.40;99.90
3919;DHT22;1974;48.670;8.994;2022-10-18T05:17:36;14.40;99.90
3919;DHT22;1974;48.670;8.994;2022-10-18T05:20:04;14.40;99.90
3919;DHT22;1974;48.670;8.994;2022-10-18T05:22:31;14.50;99.90
3919;DHT22;1974;48.670;8.994;2022-10-18T05:24:57;14.50;99.90
3919;DHT22;1974;48.670;8.994;2022-10-18T05:27:24;14.50;99.90
3919;DHT22;1974;48.670;8.994;2022-10-18T05:29:51;14.60;99.90
3919;DHT22;1974;48.670;8.994;2022-10-18T05:32:19;14.70;99.90
3919;DHT22;1974;48.670;8.994;2022-10-18T05:34:46;14.70;99.90
3919;DHT22;1974;48.670;8.994;2022-10-18T05:37:13;14.60;99.90
3919;DHT22;1974;48.670;8.994;2022-10-18T05:39:39;14.70;99.90
3919;DHT22;1974;48.670;8.994;2022-10-18T05:42:06;14.60;99.90
3919;DHT22;1974;48.670;8.994;2022-10-18T05:44:33;14.60;99.90
3919;DHT22;1974;48.670;8.994;2022-10-18T05:47:00;14.60;99.90
3919;DHT22;1974;48.670;8.994;2022-10-18T05:49:28;14.50;99.90
3919;DHT22;1974;48.670;8.994;2022-10-18T05:51:55;14.50;99.90
3919;DHT22;1974;48.670;8.994;2022-10-18T05:54:22;14.50;99.90
3919;DHT22;1974;48.670;8.994;2022-10-18T05:56:49;14.50;99.90
3919;DHT22;1974;48.670;8.994;2022-10-18T05:59:15;14.40;99.90
3919;DHT22;1974;48.670;8.994;2022-10-18T06:01:42;14.40;99.90
3919;DHT22;1974;48.670;8.994;2022-10-18T06:04:10;14.40;99.90
3919;DHT22;1974;48.670;8.994;2022-10-18T06:06:38;14.40;99.90
3919;DHT22;1974;48.670;8.994;2022-10-18T06:09:06;14.40;99.90
3919;DHT22;1974;48.670;8.994;2022-10-18T06:11:34;14.30;99.90
3919;DHT22;1974;48.670;8.994;2022-10-18T06:14:01;14.30;99.90
3919;DHT22;1974;48.670;8.994;2022-10-18T06:16:29;14.40;99.90
3919;DHT22;1974;48.670;8.994;2022-10-18T06:18:56;14.40;99.90
3919;DHT22;1974;48.670;8.994;2022-10-18T06:21:24;14.50;99.90
3919;DHT22;1974;48.670;8.994;2022-10-18T06:23:54;14.60;99.90
3919;DHT22;1974;48.670;8.994;2022-10-18T06:26:21;14.70;99.90
3919;DHT22;1974;48.670;8.994;2022-10-18T06:28:49;14.90;99.90
3919;DHT22;1974;48.670;8.994;2022-10-18T06:31:16;15.00;99.90
3919;DHT22;1974;48.670;8.994;2022-10-18T06:33:43;15.10;99.90
3919;DHT22;1974;48.670;8.994;2022-10-18T06:36:13;15.10;99.90
3919;DHT22;1974;48.670;8.994;2022-10-18T06:38:40;15.20;99.90
3919;DHT22;1974;48.670;8.994;2022-10-18T06:41:09;15.30;99.90
3919;DHT22;1974;48.670;8.994;2022-10-18T06:43:36;15.40;99.90
3919;DHT22;1974;48.670;8.994;2022-10-18T06:46:04;15.50;99.90
3919;DHT22;1974;48.670;8.994;2022-10-18T06:48:32;15.60;99.90
3919;DHT22;1974;48.670;8.994;2022-10-18T06:51:01;15.60;99.90
3919;DHT22;1974;48.670;8.994;2022-10-18T06:53:29;15.60;99.90
3919;DHT22;1974;48.670;8.994;2022-10-18T06:55:58;15.60;99.90
3919;DHT22;1974;48.670;8.994;2022-10-18T06:58:27;15.60;99.90
3919;DHT22;1974;48.670;8.994;2022-10-18T07:00:54;15.70;99.90
3919;DHT22;1974;48.670;8.994;2022-10-18T07:03:21;15.80;99.90
3919;DHT22;1974;48.670;8.994;2022-10-18T07:05:48;15.80;99.90
3919;DHT22;1974;48.670;8.994;2022-10-18T07:08:15;15.80;99.90
3919;DHT22;1974;48.670;8.994;2022-10-18T07:10:49;15.90;99.90
3919;DHT22;1974;48.670;8.994;2022-10-18T07:13:17;15.90;99.90
3919;DHT22;1974;48.670;8.994;2022-10-18T07:15:45;16.00;99.90
3919;DHT22;1974;48.670;8.994;2022-10-18T07:18:12;16.10;99.90
3919;DHT22;1974;48.670;8.994;2022-10-18T07:20:39;16.10;99.90
3919;DHT22;1974;48.670;8.994;2022-10-18T07:23:06;16.10;99.90
3919;DHT22;1974;48.670;8.994;2022-10-18T07:25:34;16.20;99.90
3919;DHT22;1974;48.670;8.994;2022-10-18T07:28:01;16.20;99.90
3919;DHT22;1974;48.670;8.994;2022-10-18T07:30:28;16.30;99.90
3919;DHT22;1974;48.670;8.994;2022-10-18T07:32:56;16.40;99.90
3919;DHT22;1974;48.670;8.994;2022-10-18T07:35:23;16.40;99.90
3919;DHT22;1974;48.670;8.994;2022-10-18T07:37:49;16.50;99.90
3919;DHT22;1974;48.670;8.994;2022-10-18T07:40:16;16.50;99.90
3919;DHT22;1974;48.670;8.994;2022-10-18T07:42:43;16.50;99.90
3919;DHT22;1974;48.670;8.994;2022-10-18T07:45:10;16.60;99.90
3919;DHT22;1974;48.670;8.994;2022-10-18T07:47:38;16.70;99.90
3919;DHT22;1974;48.670;8.994;2022-10-18T07:50:07;16.80;99.90
3919;DHT22;1974;48.670;8.994;2022-10-18T07:52:34;16.90;99.90
3919;DHT22;1974;48.670;8.994;2022-10-18T07:55:01;17.00;99.90
3919;DHT22;1974;48.670;8.994;2022-10-18T07:57:27;17.10;99.90
3919;DHT22;1974;48.670;8.994;2022-10-18T07:59:54;17.20;99.90
3919;DHT22;1974;48.670;8.994;2022-10-18T08:02:22;17.40;99.90
3919;DHT22;1974;48.670;8.994;2022-10-18T08:04:49;17.40;99.90
3919;DHT22;1974;48.670;8.994;2022-10-18T08:07:17;17.40;99.90
3919;DHT22;1974;48.670;8.994;2022-10-18T08:09:44;17.50;99.90
3919;DHT22;1974;48.670;8.994;2022-10-18T08:12:11;17.60;99.90
3919;DHT22;1974;48.670;8.994;2022-10-18T08:14:39;17.60;99.90
3919;DHT22;1974;48.670;8.994;2022-10-18T08:17:06;17.60;99.90
3919;DHT22;1974;48.670;8.994;2022-10-18T08:19:33;17.70;99.90
3919;DHT22;1974;48.670;8.994;2022-10-18T08:22:00;17.80;99.90
3919;DHT22;1974;48.670;8.994;2022-10-18T08:24:28;17.80;99.90
3919;DHT22;1974;48.670;8.994;2022-10-18T08:26:55;17.90;99.90
3919;DHT22;1974;48.670;8.994;2022-10-18T08:29:22;17.90;99.90
3919;DHT22;1974;48.670;8.994;2022-10-18T08:31:49;18.10;99.90
3919;DHT22;1974;48.670;8.994;2022-10-18T08:34:16;18.20;99.90
3919;DHT22;1974;48.670;8.994;2022-10-18T08:36:43;18.50;99.90
3919;DHT22;1974;48.670;8.994;2022-10-18T08:39:09;18.80;99.90
3919;DHT22;1974;48.670;8.994;2022-10-18T08:44:47;19.70;99.90
3919;DHT22;1974;48.670;8.994;2022-10-18T08:47:17;20.40;99.90
3919;DHT22;1974;48.670;8.994;2022-10-18T08:49:46;21.20;99.90
3919;DHT22;1974;48.670;8.994;2022-10-18T08:52:18;22.10;99.90
3919;DHT22;1974;48.670;8.994;2022-10-18T08:54:53;23.00;99.90
3919;DHT22;1974;48.670;8.994;2022-10-18T08:57:21;24.00;99.90
3919;DHT22;1974;48.670;8.994;2022-10-18T08:59:49;25.20;99.90
3919;DHT22;1974;48.670;8.994;2022-10-18T09:02:24;26.40;99.90
3919;DHT22;1974;48.670;8.994;2022-10-18T09:04:59;27.40;99.90
3919;DHT22;1974;48.670;8.994;2022-10-18T09:07:49;28.80;99.90
3919;DHT22;1974;48.670;8.994;2022-10-18T09:10:25;29.90;99.90
3919;DHT22;1974;48.670;8.994;2022-10-18T09:13:13;31.10;99.90
3919;DHT22;1974;48.670;8.994;2022-10-18T09:15:48;32.10;96.80
3919;DHT22;1974;48.670;8.994;2022-10-18T09:18:34;32.40;92.40
3919;DHT22;1974;48.670;8.994;2022-10-18T09:21:08;32.30;89.30
3919;DHT22;1974;48.670;8.994;2022-10-18T09:23:45;32.30;87.20
3919;DHT22;1974;48.670;8.994;2022-10-18T09:26:15;31.80;87.10
3919;DHT22;1974;48.670;8.994;2022-10-18T09:28:52;31.90;86.70
3919;DHT22;1974;48.670;8.994;2022-10-18T09:31:27;32.00;83.60
3919;DHT22;1974;48.670;8.994;2022-10-18T09:33:59;30.60;85.60
3919;DHT22;1974;48.670;8.994;2022-10-18T09:36:31;29.10;88.80
3919;DHT22;1974;48.670;8.994;2022-10-18T09:39:02;28.10;91.80
3919;DHT22;1974;48.670;8.994;2022-10-18T09:41:34;28.00;93.00
3919;DHT22;1974;48.670;8.994;2022-10-18T09:44:08;28.40;93.00
3919;DHT22;1974;48.670;8.994;2022-10-18T09:46:42;28.50;93.00
3919;DHT22;1974;48.670;8.994;2022-10-18T09:49:15;28.30;92.40
3919;DHT22;1974;48.670;8.994;2022-10-18T09:51:43;28.30;92.50
3919;DHT22;1974;48.670;8.994;2022-10-18T09:54:19;28.30;93.00
3919;DHT22;1974;48.670;8.994;2022-10-18T09:56:48;28.10;92.60
3919;DHT22;1974;48.670;8.994;2022-10-18T09:59:33;28.70;92.20
3919;DHT22;1974;48.670;8.994;2022-10-18T10:02:02;29.20;91.80
3919;DHT22;1974;48.670;8.994;2022-10-18T10:04:29;29.10;91.20
3919;DHT22;1974;48.670;8.994;2022-10-18T10:06:59;30.10;90.30
3919;DHT22;1974;48.670;8.994;2022-10-18T10:09:29;31.50;86.70
3919;DHT22;1974;48.670;8.994;2022-10-18T10:11:56;32.90;83.90
3919;DHT22;1974;48.670;8.994;2022-10-18T10:14:25;34.20;77.60
3919;DHT22;1974;48.670;8.994;2022-10-18T10:16:54;35.10;74.10
3919;DHT22;1974;48.670;8.994;2022-10-18T10:19:30;36.10;71.10
3919;DHT22;1974;48.670;8.994;2022-10-18T10:22:01;35.60;68.70
3919;DHT22;1974;48.670;8.994;2022-10-18T10:24:34;36.10;66.70
3919;DHT22;1974;48.670;8.994;2022-10-18T10:27:05;36.10;66.20
3919;DHT22;1974;48.670;8.994;2022-10-18T10:29:50;35.50;65.40
3919;DHT22;1974;48.670;8.994;2022-10-18T10:32:20;34.40;66.30
3919;DHT22;1974;48.670;8.994;2022-10-18T10:34:48;32.80;69.30
3919;DHT22;1974;48.670;8.994;2022-10-18T10:37:24;31.20;73.60
3919;DHT22;1974;48.670;8.994;2022-10-18T10:40:16;30.30;77.40
3919;DHT22;1974;48.670;8.994;2022-10-18T10:43:13;30.00;79.30
3919;DHT22;1974;48.670;8.994;2022-10-18T10:45:58;29.40;80.00
3919;DHT22;1974;48.670;8.994;2022-10-18T10:48:26;28.50;82.90
3919;DHT22;1974;48.670;8.994;2022-10-18T10:51:00;27.80;85.50
3919;DHT22;1974;48.670;8.994;2022-10-18T10:53:40;27.50;88.60
3919;DHT22;1974;48.670;8.994;2022-10-18T10:56:22;27.00;90.00
3919;DHT22;1974;48.670;8.994;2022-10-18T10:58:51;26.50;91.50
3919;DHT22;1974;48.670;8.994;2022-10-18T11:01:25;26.20;92.40
3919;DHT22;1974;48.670;8.994;2022-10-18T11:03:56;26.00;92.80
3919;DHT22;1974;48.670;8.994;2022-10-18T11:06:45;26.00;93.20
3919;DHT22;1974;48.670;8.994;2022-10-18T11:09:32;25.90;93.60
3919;DHT22;1974;48.670;8.994;2022-10-18T11:12:15;25.90;93.50
3919;DHT22;1974;48.670;8.994;2022-10-18T11:14:46;25.80;93.90
3919;DHT22;1974;48.670;8.994;2022-10-18T11:17:20;25.80;94.40
3919;DHT22;1974;48.670;8.994;2022-10-18T11:20:01;25.70;93.80
3919;DHT22;1974;48.670;8.994;2022-10-18T11:22:34;25.70;94.70
3919;DHT22;1974;48.670;8.994;2022-10-18T11:25:02;25.80;94.10
3919;DHT22;1974;48.670;8.994;2022-10-18T11:27:33;25.80;94.60
3919;DHT22;1974;48.670;8.994;2022-10-18T11:30:13;25.80;94.40
3919;DHT22;1974;48.670;8.994;2022-10-18T11:32:47;25.60;94.90
3919;DHT22;1974;48.670;8.994;2022-10-18T11:35:28;25.50;95.50
3919;DHT22;1974;48.670;8.994;2022-10-18T11:38:09;25.30;95.90
3919;DHT22;1974;48.670;8.994;2022-10-18T11:40:46;25.10;95.90
3919;DHT22;1974;48.670;8.994;2022-10-18T11:43:21;25.10;95.80
3919;DHT22;1974;48.670;8.994;2022-10-18T11:45:56;25.00;96.10
3919;DHT22;1974;48.670;8.994;2022-10-18T11:51:24;24.90;95.20
3919;DHT22;1974;48.670;8.994;2022-10-18T11:54:02;24.80;95.30
3919;DHT22;1974;48.670;8.994;2022-10-18T11:56:38;24.80;94.80
3919;DHT22;1974;48.670;8.994;2022-10-18T11:59:24;24.60;95.30
3919;DHT22;1974;48.670;8.994;2022-10-18T12:02:09;24.40;95.70
3919;DHT22;1974;48.670;8.994;2022-10-18T12:04:41;24.10;96.40
3919;DHT22;1974;48.670;8.994;2022-10-18T12:07:10;23.90;97.10
3919;DHT22;1974;48.670;8.994;2022-10-18T12:09:43;23.60;98.20
3919;DHT22;1974;48.670;8.994;2022-10-18T12:12:14;23.30;98.00
3919;DHT22;1974;48.670;8.994;2022-10-18T12:14:46;23.20;98.10
3919;DHT22;1974;48.670;8.994;2022-10-18T12:17:19;23.00;98.70
3919;DHT22;1974;48.670;8.994;2022-10-18T12:19:49;23.00;99.70
3919;DHT22;1974;48.670;8.994;2022-10-18T12:22:22;22.90;99.90
3919;DHT22;1974;48.670;8.994;2022-10-18T12:24:52;22.90;99.70
3919;DHT22;1974;48.670;8.994;2022-10-18T12:27:31;22.80;99.90
3919;DHT22;1974;48.670;8.994;2022-10-18T12:30:05;22.70;99.90
3919;DHT22;1974;48.670;8.994;2022-10-18T12:32:35;22.70;99.90
3919;DHT22;1974;48.670;8.994;2022-10-18T12:35:09;22.70;99.90
3919;DHT22;1974;48.670;8.994;2022-10-18T12:37:56;22.80;99.90
3919;DHT22;1974;48.670;8.994;2022-10-18T12:40:35;22.90;99.90
3919;DHT22;1974;48.670;8.994;2022-10-18T12:43:08;22.90;99.90
3919;DHT22;1974;48.670;8.994;2022-10-18T12:45:52;22.90;99.90
3919;DHT22;1974;48.670;8.994;2022-10-18T12:48:30;23.00;99.90
3919;DHT22;1974;48.670;8.994;2022-10-18T12:50:59;23.10;99.90
3919;DHT22;1974;48.670;8.994;2022-10-18T12:53:27;23.10;99.90
3919;DHT22;1974;48.670;8.994;2022-10-18T12:56:35;23.00;99.90
3919;DHT22;1974;48.670;8.994;2022-10-18T12:59:38;22.80;99.90
3919;DHT22;1974;48.670;8.994;2022-10-18T13:02:22;22.60;99.90
3919;DHT22;1974;48.670;8.994;2022-10-18T13:04:49;22.50;99.90
3919;DHT22;1974;48.670;8.994;2022-10-18T13:07:21;22.30;99.90
3919;DHT22;1974;48.670;8.994;2022-10-18T13:13:28;22.20;99.90
3919;DHT22;1974;48.670;8.994;2022-10-18T13:16:02;22.10;99.90
3919;DHT22;1974;48.670;8.994;2022-10-18T13:18:39;22.10;99.90
3919;DHT22;1974;48.670;8.994;2022-10-18T13:21:16;22.10;99.90
3919;DHT22;1974;48.670;8.994;2022-10-18T13:24:05;22.00;99.90
3919;DHT22;1974;48.670;8.994;2022-10-18T13:26:43;21.90;99.90
3919;DHT22;1974;48.670;8.994;2022-10-18T13:32:22;21.60;99.90
3919;DHT22;1974;48.670;8.994;2022-10-18T13:34:50;21.50;99.90
3919;DHT22;1974;48.670;8.994;2022-10-18T13:37:22;21.50;99.90
3919;DHT22;1974;48.670;8.994;2022-10-18T13:39:51;21.50;99.90
3919;DHT22;1974;48.670;8.994;2022-10-18T13:42:37;21.20;99.90
3919;DHT22;1974;48.670;8.994;2022-10-18T13:48:47;21.10;99.90
3919;DHT22;1974;48.670;8.994;2022-10-18T13:51:29;21.10;99.90
3919;DHT22;1974;48.670;8.994;2022-10-18T13:54:23;21.00;99.90
3919;DHT22;1974;48.670;8.994;2022-10-18T13:57:11;20.90;99.90
3919;DHT22;1974;48.670;8.994;2022-10-18T13:59:58;21.00;99.90
3919;DHT22;1974;48.670;8.994;2022-10-18T14:02:41;21.00;99.90
3919;DHT22;1974;48.670;8.994;2022-10-18T14:05:41;21.00;99.90
3919;DHT22;1974;48.670;8.994;2022-10-18T14:08:14;21.00;99.90
3919;DHT22;1974;48.670;8.994;2022-10-18T14:10:47;21.00;99.90
3919;DHT22;1974;48.670;8.994;2022-10-18T14:13:20;21.00;99.90
3919;DHT22;1974;48.670;8.994;2022-10-18T14:15:50;21.00;99.90
3919;DHT22;1974;48.670;8.994;2022-10-18T14:18:20;21.00;99.90
3919;DHT22;1974;48.670;8.994;2022-10-18T14:20:54;21.00;99.90
3919;DHT22;1974;48.670;8.994;2022-10-18T14:23:26;21.00;99.90
3919;DHT22;1974;48.670;8.994;2022-10-18T14:26:05;21.00;99.90
3919;DHT22;1974;48.670;8.994;2022-10-18T14:28:32;21.00;99.90
3919;DHT22;1974;48.670;8.994;2022-10-18T14:31:00;21.00;99.90
3919;DHT22;1974;48.670;8.994;2022-10-18T14:33:31;21.00;99.90
3919;DHT22;1974;48.670;8.994;2022-10-18T14:36:06;21.10;99.90
3919;DHT22;1974;48.670;8.994;2022-10-18T14:38:34;21.10;99.90
3919;DHT22;1974;48.670;8.994;2022-10-18T14:41:11;21.10;99.90
3919;DHT22;1974;48.670;8.994;2022-10-18T14:43:39;21.10;99.90
3919;DHT22;1974;48.670;8.994;2022-10-18T14:46:17;21.10;99.90
3919;DHT22;1974;48.670;8.994;2022-10-18T14:48:51;21.00;99.90
3919;DHT22;1974;48.670;8.994;2022-10-18T14:51:20;20.90;99.90
3919;DHT22;1974;48.670;8.994;2022-10-18T14:53:47;20.80;99.90
3919;DHT22;1974;48.670;8.994;2022-10-18T14:56:21;20.80;99.90
3919;DHT22;1974;48.670;8.994;2022-10-18T14:58:49;20.80;99.90
3919;DHT22;1974;48.670;8.994;2022-10-18T15:01:19;20.80;99.90
3919;DHT22;1974;48.670;8.994;2022-10-18T15:03:46;20.80;99.90
3919;DHT22;1974;48.670;8.994;2022-10-18T15:06:16;20.70;99.90
3919;DHT22;1974;48.670;8.994;2022-10-18T15:08:46;20.60;99.90
3919;DHT22;1974;48.670;8.994;2022-10-18T15:11:15;20.50;99.90
3919;DHT22;1974;48.670;8.994;2022-10-18T15:13:47;20.30;99.90
3919;DHT22;1974;48.670;8.994;2022-10-18T15:16:15;20.20;99.90
3919;DHT22;1974;48.670;8.994;2022-10-18T15:18:43;20.10;99.90
3919;DHT22;1974;48.670;8.994;2022-10-18T15:21:19;20.10;99.90
3919;DHT22;1974;48.670;8.994;2022-10-18T15:23:48;19.90;99.90
3919;DHT22;1974;48.670;8.994;2022-10-18T15:26:20;19.90;99.90
3919;DHT22;1974;48.670;8.994;2022-10-18T15:28:49;19.80;99.90
3919;DHT22;1974;48.670;8.994;2022-10-18T15:31:23;19.80;99.90
3919;DHT22;1974;48.670;8.994;2022-10-18T15:33:51;19.70;99.90
3919;DHT22;1974;48.670;8.994;2022-10-18T15:36:25;19.70;99.90
3919;DHT22;1974;48.670;8.994;2022-10-18T15:39:03;19.70;99.90
3919;DHT22;1974;48.670;8.994;2022-10-18T15:41:43;19.70;99.90
3919;DHT22;1974;48.670;8.994;2022-10-18T15:44:25;19.70;99.90
3919;DHT22;1974;48.670;8.994;2022-10-18T15:46:53;19.70;99.90
3919;DHT22;1974;48.670;8.994;2022-10-18T15:49:51;19.70;99.90
3919;DHT22;1974;48.670;8.994;2022-10-18T15:52:39;19.70;99.90
3919;DHT22;1974;48.670;8.994;2022-10-18T15:55:44;19.60;99.90
3919;DHT22;1974;48.670;8.994;2022-10-18T15:58:16;19.50;99.90
3919;DHT22;1974;48.670;8.994;2022-10-18T16:00:44;19.50;99.90
3919;DHT22;1974;48.670;8.994;2022-10-18T16:03:12;19.40;99.90
3919;DHT22;1974;48.670;8.994;2022-10-18T16:05:39;19.30;99.90
3919;DHT22;1974;48.670;8.994;2022-10-18T16:08:14;19.20;99.90
3919;DHT22;1974;48.670;8.994;2022-10-18T16:10:43;19.00;99.90
3919;DHT22;1974;48.670;8.994;2022-10-18T16:13:09;18.90;99.90
3919;DHT22;1974;48.670;8.994;2022-10-18T16:15:37;18.80;99.90
3919;DHT22;1974;48.670;8.994;2022-10-18T16:18:03;18.70;99.90
3919;DHT22;1974;48.670;8.994;2022-10-18T16:20:30;18.70;99.90
3919;DHT22;1974;48.670;8.994;2022-10-18T16:22:57;18.60;99.90
3919;DHT22;1974;48.670;8.994;2022-10-18T16:25:24;18.50;99.90
3919;DHT22;1974;48.670;8.994;2022-10-18T16:27:52;18.50;99.90
3919;DHT22;1974;48.670;8.994;2022-10-18T16:30:20;18.40;99.90
3919;DHT22;1974;48.670;8.994;2022-10-18T16:32:48;18.30;99.90
3919;DHT22;1974;48.670;8.994;2022-10-18T16:35:15;18.20;99.90
3919;DHT22;1974;48.670;8.994;2022-10-18T16:37:42;18.20;99.90
3919;DHT22;1974;48.670;8.994;2022-10-18T16:40:20;18.10;99.90
3919;DHT22;1974;48.670;8.994;2022-10-18T16:42:48;18.10;99.90
3919;DHT22;1974;48.670;8.994;2022-10-18T16:45:17;18.10;99.90
3919;DHT22;1974;48.670;8.994;2022-10-18T16:47:43;17.90;99.90
3919;DHT22;1974;48.670;8.994;2022-10-18T16:50:14;17.90;99.90